aviador You're here:

YCBA Decoded Metar

in
Report Time2017-11-25 03:00:00
UTC Time2017-11-25 03:35:14
Flight Rules vfr VFR
Wind030° at 09 kt
W.Decomp.*RWY 05: 8.5 kt HW 3.1 kt LCW
RWY 35: 6.9 kt HW 5.8 kt RCW
W.Rank030° ranks 9
Current wind is above 030° avg. (8.0)
Visibility9999 m
Phenomena:N/A
Clouds:Broken 115 Hf
Expected CloudBase > 11,200 ft AGL from Temp-Dew spread
Ceiling11,500 ft
Temp33°C
Dew Point05°C (17% RH)
Heat Index30.8°C
AAT28.6°C
QNH1011 hPa
Raw Report
METAR YCBA 250300Z AUTO 03009KT 9999 // BKN115 33/05 Q1011=

Extra information for YCBA:More info

Social comments